Time;durP1;ratioP1;P1;durP2;ratioP2;P2;SDS_P1;SDS_P2;PMS_P1;PMS_P2;Temp;Humidity;BMP_temperature;BMP_pressure;BME280_temperature;BME280_humidity;BME280_pressure;Samples;Min_cycle;Max_cycle;Signal;HPM_P1;HPM_P2
2022/04/10 00:00:43;;;;;;;3.85;2.10;;;;;;;1.52;74.01;101780.22;5053489;28;20389;-83
2022/04/10 00:03:08;;;;;;;;;;;;;;;1.54;73.68;101780.28;5054641;28;20032;-83
2022/04/10 00:05:33;;;;;;;3.20;2.30;;;;;;;1.53;74.73;101784.53;5053610;28;20371;-83
2022/04/10 00:07:59;;;;;;;2.45;2.08;;;;;;;1.51;74.47;101782.72;5054496;28;20111;-83
2022/04/10 00:10:24;;;;;;;2.22;2.00;;;;;;;1.51;75.36;101783.63;5054034;28;20025;-83
2022/04/10 00:12:49;;;;;;;2.42;2.03;;;;;;;1.50;74.69;101792.09;5053436;28;20056;-83
2022/04/10 00:15:15;;;;;;;2.30;1.92;;;;;;;1.50;75.39;101788.66;5054211;28;20496;-83
2022/04/10 00:17:41;;;;;;;2.20;2.00;;;;;;;1.50;74.07;101787.00;5073511;28;20044;-83
2022/04/10 00:20:09;;;;;;;2.37;2.13;;;;;;;1.49;74.16;101794.59;5121917;22;20053;-83
2022/04/10 00:22:43;;;;;;;2.17;1.98;;;;;;;1.50;75.00;101787.00;5053581;28;20272;-83
2022/04/10 00:27:47;;;;;;;2.30;2.10;;;;;;;1.52;73.50;101782.78;5430711;22;20059;-83
2022/04/10 00:30:14;;;;;;;4.03;2.13;;;;;;;1.46;74.28;101784.25;5073697;28;20043;-83
2022/04/10 00:32:40;;;;;;;2.85;2.30;;;;;;;1.44;73.91;101789.31;5073420;28;20146;-83
2022/04/10 00:35:09;;;;;;;4.05;2.30;;;;;;;1.43;73.96;101789.25;5074262;28;20047;-83
2022/04/10 00:37:36;;;;;;;2.70;2.10;;;;;;;1.40;74.21;101790.03;5073762;28;20028;-83
2022/04/10 00:40:03;;;;;;;3.33;2.10;;;;;;;1.38;75.76;101786.53;5073123;28;20050;-83
2022/04/10 00:42:40;;;;;;;3.53;2.20;;;;;;;1.34;74.39;101775.31;5073583;28;20043;-84
2022/04/10 00:45:06;;;;;;;;;;;;;;;1.33;74.19;101780.34;5073980;28;20048;-83
2022/04/10 00:47:32;;;;;;;3.67;2.20;;;;;;;1.27;74.70;101770.75;5073343;28;19920;-83
2022/04/10 00:49:59;;;;;;;2.65;2.00;;;;;;;1.28;75.14;101771.66;5073781;28;20036;-83
2022/04/10 00:52:26;;;;;;;4.03;2.10;;;;;;;1.24;74.71;101778.31;5073286;28;20081;-83
2022/04/10 00:54:52;;;;;;;3.00;2.10;;;;;;;1.23;75.53;101774.91;5072669;28;20028;-83
2022/04/10 00:57:21;;;;;;;2.90;2.30;;;;;;;1.20;75.65;101769.66;5073003;28;20111;-83
2022/04/10 00:59:46;;;;;;;2.08;1.88;;;;;;;1.19;75.06;101770.47;5073469;28;20025;-84
2022/04/10 01:02:12;;;;;;;3.40;2.00;;;;;;;1.18;75.56;101772.97;5072614;28;20078;-83
2022/04/10 01:04:37;;;;;;;3.47;2.42;;;;;;;1.17;75.24;101771.22;5073404;28;20047;-83
2022/04/10 01:07:05;;;;;;;2.97;2.15;;;;;;;1.17;75.46;101773.78;5073487;28;20024;-83
2022/04/10 01:09:31;;;;;;;3.50;1.90;;;;;;;1.15;75.54;101767.72;5072129;28;20016;-83
2022/04/10 01:11:57;;;;;;;2.20;2.00;;;;;;;1.13;75.23;101775.34;5072856;28;20025;-83
2022/04/10 01:14:23;;;;;;;3.25;1.90;;;;;;;1.14;75.38;101776.22;5073017;28;20035;-83
2022/04/10 01:16:48;;;;;;;2.25;2.00;;;;;;;1.15;75.56;101777.97;5072715;28;20059;-83
2022/04/10 01:19:16;;;;;;;2.53;1.90;;;;;;;1.15;75.25;101767.72;5055021;28;20027;-83
2022/04/10 01:21:44;;;;;;;2.78;2.10;;;;;;;1.16;74.82;101775.50;5072783;28;20028;-83
2022/04/10 01:24:11;;;;;;;2.40;1.88;;;;;;;1.16;76.02;101770.38;5072310;28;20453;-83
2022/04/10 01:26:36;;;;;;;;;;;;;;;1.13;75.62;101775.34;5072862;28;20057;-83
2022/04/10 01:29:05;;;;;;;2.20;2.00;;;;;;;1.10;75.61;101774.38;5072436;28;19927;-83
2022/04/10 01:31:32;;;;;;;3.05;2.10;;;;;;;1.13;75.96;101780.47;5072686;28;20028;-83
2022/04/10 01:34:05;;;;;;;3.08;1.80;;;;;;;1.13;75.77;101784.69;5072837;28;20045;-83
2022/04/10 01:36:32;;;;;;;1.88;1.77;;;;;;;1.12;75.79;101782.97;5071612;28;20046;-83
2022/04/10 01:38:59;;;;;;;2.15;1.90;;;;;;;1.14;75.65;101776.22;5073107;28;20032;-83
2022/04/10 01:41:25;;;;;;;;;;;;;;;1.16;75.52;101783.16;5073070;28;20468;-82
2022/04/10 01:43:51;;;;;;;2.30;2.10;;;;;;;1.16;75.49;101774.59;5072120;28;20379;-83
2022/04/10 01:46:17;;;;;;;2.60;2.10;;;;;;;1.15;76.57;101781.41;5072763;28;20388;-83
2022/04/10 01:48:42;;;;;;;2.33;1.95;;;;;;;1.12;76.64;101777.88;5295119;22;20052;-83
2022/04/10 01:51:08;;;;;;;3.65;2.10;;;;;;;1.11;75.77;101782.09;5071826;28;20020;-83
2022/04/10 01:53:35;;;;;;;2.42;2.00;;;;;;;1.11;75.53;101787.22;5072263;28;20024;-83
2022/04/10 01:56:01;;;;;;;3.67;2.15;;;;;;;1.07;76.04;101781.09;5072962;28;20491;-83
2022/04/10 01:58:26;;;;;;;2.65;2.10;;;;;;;1.08;75.41;101787.06;5071776;28;20032;-83
2022/04/10 02:00:52;;;;;;;2.10;1.90;;;;;;;1.05;75.48;101785.28;5073107;28;20058;-83
2022/04/10 02:03:17;;;;;;;3.03;2.10;;;;;;;1.05;75.89;101792.94;5072997;28;20451;-83
2022/04/10 02:05:42;;;;;;;3.50;1.90;;;;;;;1.02;76.30;101794.53;5071498;28;20033;-83
2022/04/10 02:08:07;;;;;;;2.20;1.98;;;;;;;1.00;75.54;101801.25;5072563;28;20029;-83
2022/04/10 02:10:34;;;;;;;3.30;2.30;;;;;;;1.01;76.59;101808.13;5072514;28;20024;-83
2022/04/10 02:13:02;;;;;;;2.90;2.10;;;;;;;0.98;75.69;101802.88;5071757;28;20384;-83
2022/04/10 02:15:27;;;;;;;2.88;2.10;;;;;;;0.94;76.09;101795.91;5072231;28;20017;-83
2022/04/10 02:17:59;;;;;;;3.17;2.00;;;;;;;0.92;76.78;101790.72;5072767;28;20500;-83
2022/04/10 02:20:24;;;;;;;2.35;2.15;;;;;;;0.93;76.16;101792.47;5071126;28;20036;-83
2022/04/10 02:22:52;;;;;;;2.55;2.00;;;;;;;0.92;75.94;101795.81;5074342;28;20021;-83
2022/04/10 02:25:18;;;;;;;3.22;2.13;;;;;;;0.91;76.63;101786.41;5075363;28;20029;-82
2022/04/10 02:27:43;;;;;;;2.38;2.10;;;;;;;0.93;76.11;101787.34;5076203;28;20357;-83
2022/04/10 02:30:09;;;;;;;2.97;2.10;;;;;;;0.94;75.78;101799.31;5076049;28;20064;-83
2022/04/10 02:32:37;;;;;;;2.80;2.30;;;;;;;0.95;75.74;101802.78;5074644;28;20029;-83
2022/04/10 02:35:02;;;;;;;4.93;2.53;;;;;;;0.93;76.38;101800.13;5075702;28;20043;-83
2022/04/10 02:37:27;;;;;;;3.30;2.35;;;;;;;0.89;76.47;101796.59;5075518;28;20443;-83
2022/04/10 02:39:53;;;;;;;3.53;2.40;;;;;;;0.90;76.58;101795.78;5075395;28;20082;-83
2022/04/10 02:42:18;;;;;;;3.67;2.50;;;;;;;0.89;75.98;101798.28;5075439;28;20040;-83
2022/04/10 02:44:43;;;;;;;4.57;2.55;;;;;;;0.84;76.22;101793.00;5075953;28;20012;-83
2022/04/10 02:47:11;;;;;;;4.60;2.45;;;;;;;0.87;75.94;101807.56;5075181;28;20029;-83
2022/04/10 02:49:36;;;;;;;6.05;2.80;;;;;;;0.85;76.07;101809.19;5075460;28;20040;-82
2022/04/10 02:52:02;;;;;;;7.63;3.10;;;;;;;0.83;75.90;101809.13;5075882;28;20078;-83
2022/04/10 02:54:27;;;;;;;3.45;2.60;;;;;;;0.82;76.39;101812.50;5074711;28;20030;-83
2022/04/10 02:56:52;;;;;;;3.42;2.63;;;;;;;0.79;76.12;101814.06;5075176;28;20020;-83
2022/04/10 02:59:18;;;;;;;4.25;2.90;;;;;;;0.76;75.91;101819.91;5075442;28;20032;-83
2022/04/10 03:01:49;;;;;;;4.00;2.70;;;;;;;0.73;76.25;101814.69;5074793;28;20039;-83
2022/04/10 03:04:15;;;;;;;3.55;2.70;;;;;;;0.72;76.12;101820.59;5055543;28;20078;-82
2022/04/10 03:06:40;;;;;;;5.05;2.85;;;;;;;0.69;75.88;101816.22;5055299;28;20037;-83
2022/04/10 03:09:05;;;;;;;4.63;2.80;;;;;;;0.59;77.68;101815.00;5054618;28;20048;-83
2022/04/10 03:11:30;;;;;;;3.67;2.90;;;;;;;0.61;76.58;101821.03;5063408;28;20380;-83
2022/04/10 03:13:56;;;;;;;3.63;2.80;;;;;;;0.60;76.39;101818.41;5075809;28;20098;-83
2022/04/10 03:16:21;;;;;;;4.45;3.05;;;;;;;0.60;76.69;101820.97;5074428;28;20024;-84
2022/04/10 03:18:46;;;;;;;5.70;3.10;;;;;;;0.60;76.24;101823.50;5075477;28;20435;-84
2022/04/10 03:21:11;;;;;;;4.22;2.80;;;;;;;0.54;77.03;101816.47;5074901;28;20043;-83
2022/04/10 03:23:37;;;;;;;3.78;2.97;;;;;;;0.54;76.28;101815.59;5074296;28;20033;-83
2022/04/10 03:26:02;;;;;;;3.60;2.90;;;;;;;0.53;76.59;101824.94;5075418;28;20025;-83
2022/04/10 03:28:27;;;;;;;4.43;2.95;;;;;;;0.45;76.39;101811.84;5073968;28;20028;-83
2022/04/10 03:30:53;;;;;;;3.72;2.90;;;;;;;0.48;76.89;101821.34;5074805;28;20032;-83
2022/04/10 03:33:18;;;;;;;3.35;2.70;;;;;;;0.46;76.63;101833.16;5074369;28;20481;-83
2022/04/10 03:35:43;;;;;;;3.72;2.95;;;;;;;0.45;76.35;101833.97;5074202;28;20024;-83
2022/04/10 03:38:08;;;;;;;5.30;3.17;;;;;;;0.42;76.66;101821.94;5075042;28;20046;-83
2022/04/10 03:40:34;;;;;;;4.80;2.80;;;;;;;0.41;76.59;101827.88;5074502;28;20039;-83
2022/04/10 03:43:02;;;;;;;4.72;2.90;;;;;;;0.39;76.68;101832.03;5074295;28;20051;-83
2022/04/10 03:45:27;;;;;;;5.45;3.13;;;;;;;0.38;76.14;101827.72;5074844;28;20063;-83
2022/04/10 03:47:52;;;;;;;4.22;2.90;;;;;;;0.35;77.10;101825.03;5074436;28;20043;-83
2022/04/10 03:50:24;;;;;;;4.00;2.80;;;;;;;0.35;77.24;101826.72;5073600;28;20114;-83
2022/04/10 03:52:49;;;;;;;4.38;2.83;;;;;;;0.34;76.74;101830.94;5074559;28;20107;-82
2022/04/10 03:55:15;;;;;;;4.25;2.80;;;;;;;0.32;77.37;101832.59;5074654;28;20108;-83
2022/04/10 03:57:40;;;;;;;3.88;2.70;;;;;;;0.27;77.16;101834.06;5073272;28;20048;-83
2022/04/10 04:00:06;;;;;;;4.35;2.88;;;;;;;0.31;76.76;101841.06;5074344;28;20506;-82
2022/04/10 04:02:34;;;;;;;4.20;2.80;;;;;;;0.31;76.88;101838.50;5073988;28;20028;-83
2022/04/10 04:05:04;;;;;;;5.45;2.95;;;;;;;0.29;76.77;101850.31;5073919;28;20020;-82
2022/04/10 04:07:29;;;;;;;4.07;2.80;;;;;;;0.28;77.14;101848.56;5074250;28;20035;-82
2022/04/10 04:09:54;;;;;;;4.95;2.83;;;;;;;0.27;78.48;101854.47;5074478;28;20037;-82
2022/04/10 04:12:20;;;;;;;3.58;2.78;;;;;;;0.26;77.43;101847.63;5073242;28;20035;-82
2022/04/10 04:14:46;;;;;;;4.50;2.85;;;;;;;0.25;76.93;101851.88;5074059;28;20027;-82
2022/04/10 04:17:11;;;;;;;3.20;2.70;;;;;;;0.24;77.92;101859.44;5074325;28;20487;-82
2022/04/10 04:19:36;;;;;;;3.42;2.65;;;;;;;0.22;77.69;101861.09;5072850;28;20032;-81
2022/04/10 04:22:02;;;;;;;3.30;2.75;;;;;;;0.17;79.21;101860.00;5074215;28;20409;-82
2022/04/10 04:24:27;;;;;;;4.80;3.40;;;;;;;0.14;78.28;101851.38;5074000;28;20361;-82
2022/04/10 04:26:53;;;;;;;4.53;3.30;;;;;;;0.15;77.53;101854.84;5073080;28;20047;-82
2022/04/10 04:29:18;;;;;;;5.43;3.38;;;;;;;0.15;78.33;101854.84;5074013;28;20491;-81
2022/04/10 04:31:43;;;;;;;5.13;3.30;;;;;;;0.14;78.08;101855.63;5073762;28;20024;-81
2022/04/10 04:34:11;;;;;;;4.72;3.17;;;;;;;0.13;77.79;101861.53;5072896;28;20028;-82
2022/04/10 04:36:36;;;;;;;4.40;3.00;;;;;;;0.12;77.63;101859.78;5053828;28;20021;-81
2022/04/10 04:39:02;;;;;;;4.10;2.90;;;;;;;0.12;78.14;101863.22;5053281;28;20166;-82
2022/04/10 04:41:29;;;;;;;3.08;2.65;;;;;;;0.13;77.90;101861.53;5060169;22;20136;-82
2022/04/10 04:43:55;;;;;;;3.97;2.72;;;;;;;0.14;77.52;101860.75;5033780;28;20029;-82
2022/04/10 04:46:20;;;;;;;3.85;2.80;;;;;;;0.14;77.66;101864.16;5040688;28;20043;-81
2022/04/10 04:48:45;;;;;;;6.07;3.10;;;;;;;0.14;77.93;101869.25;5038660;28;20029;-82
2022/04/10 04:51:16;;;;;;;4.20;3.00;;;;;;;0.14;77.58;101871.81;5033852;28;20401;-82
2022/04/10 04:53:41;;;;;;;4.53;2.80;;;;;;;0.14;78.17;101871.81;5032327;28;20030;-81
2022/04/10 04:56:07;;;;;;;3.60;2.78;;;;;;;0.13;77.88;101872.63;5033513;28;20108;-82
2022/04/10 04:58:35;;;;;;;4.60;2.90;;;;;;;0.12;77.93;101868.31;5033422;28;20389;-82
2022/04/10 05:01:00;;;;;;;4.00;2.90;;;;;;;0.13;77.53;101872.63;5032648;28;20041;-82
2022/04/10 05:03:25;;;;;;;5.55;3.40;;;;;;;0.13;77.58;101870.06;5033252;28;20381;-82
2022/04/10 05:05:51;;;;;;;4.90;3.05;;;;;;;0.15;77.30;101881.22;5033273;28;20381;-82
2022/04/10 05:08:16;;;;;;;4.13;3.00;;;;;;;0.15;77.16;101880.38;5032291;28;20122;-82
2022/04/10 05:10:41;;;;;;;4.90;3.30;;;;;;;0.16;77.64;101887.22;5033045;28;20022;-82
2022/04/10 05:13:08;;;;;;;4.72;3.10;;;;;;;0.17;77.35;101893.19;5033716;28;20079;-83
2022/04/10 05:15:33;;;;;;;4.90;3.20;;;;;;;0.17;77.50;101894.03;5031799;28;20034;-82
2022/04/10 05:17:58;;;;;;;4.75;3.30;;;;;;;0.17;77.99;101895.75;5033210;28;20037;-82
2022/04/10 05:20:23;;;;;;;4.72;3.20;;;;;;;0.16;77.50;101897.44;5032888;28;20441;-82
2022/04/10 05:22:49;;;;;;;3.88;2.92;;;;;;;0.16;77.92;101897.44;5032214;28;20022;-82
2022/04/10 05:25:14;;;;;;;4.13;2.90;;;;;;;0.18;77.75;101897.50;5031211;28;20046;-82
2022/04/10 05:27:39;;;;;;;5.30;3.08;;;;;;;0.15;77.37;101896.53;5033209;28;20478;-82
2022/04/10 05:30:05;;;;;;;5.18;3.20;;;;;;;0.19;77.71;101906.91;5031776;28;20087;-83
2022/04/10 05:32:30;;;;;;;3.78;3.00;;;;;;;0.18;77.49;101906.00;5033247;28;20038;-82
2022/04/10 05:34:56;;;;;;;4.32;3.30;;;;;;;0.20;77.57;101906.09;5032722;28;20029;-82
2022/04/10 05:37:21;;;;;;;5.93;3.40;;;;;;;0.16;77.58;101905.09;5393389;22;20010;-82
2022/04/10 05:39:46;;;;;;;4.75;3.20;;;;;;;0.21;77.70;101916.38;5031827;28;20520;-82
2022/04/10 05:42:14;;;;;;;4.90;3.10;;;;;;;0.23;78.81;101908.75;5032176;28;20509;-82
2022/04/10 05:44:39;;;;;;;4.18;2.80;;;;;;;0.24;77.97;101915.63;5032586;28;20052;-82
2022/04/10 05:47:05;;;;;;;4.28;2.92;;;;;;;0.25;78.04;101919.91;5033109;28;20458;-82
2022/04/10 05:49:33;;;;;;;4.32;3.10;;;;;;;0.26;77.93;101925.13;5031952;28;20099;-82
2022/04/10 05:51:58;;;;;;;5.28;3.10;;;;;;;0.32;78.12;101926.19;5033417;28;20025;-83
2022/04/10 05:54:24;;;;;;;4.35;3.00;;;;;;;0.35;78.58;101927.19;5032487;28;20393;-82
2022/04/10 05:56:49;;;;;;;5.35;3.22;;;;;;;0.42;78.44;101931.78;5033831;28;20061;-82
2022/04/10 05:59:14;;;;;;;3.70;2.70;;;;;;;0.52;78.30;101930.47;5036522;28;20029;-82
2022/04/10 06:01:39;;;;;;;4.20;2.90;;;;;;;0.61;77.88;101935.13;5036067;28;20041;-82
2022/04/10 06:04:07;;;;;;;3.80;3.00;;;;;;;0.73;77.90;101943.31;5222638;22;20045;-83
2022/04/10 06:06:32;;;;;;;3.33;2.53;;;;;;;0.82;78.51;101947.06;5056434;28;20086;-83
2022/04/10 06:09:01;;;;;;;5.55;3.25;;;;;;;0.90;80.17;101955.94;5056567;28;20119;-83
2022/04/10 06:11:26;;;;;;;5.60;3.20;;;;;;;0.96;80.42;101947.66;5031825;28;20044;-83
2022/04/10 06:13:51;;;;;;;3.45;2.80;;;;;;;1.03;80.50;101953.06;5036256;28;20474;-83
2022/04/10 06:16:19;;;;;;;4.03;2.70;;;;;;;1.09;80.75;101949.91;5036383;28;20354;-83
2022/04/10 06:18:45;;;;;;;3.47;2.40;;;;;;;1.16;80.62;101954.47;5036599;28;20025;-83
2022/04/10 06:21:11;;;;;;;4.07;2.40;;;;;;;1.21;81.71;101954.66;5036274;28;20036;-83
2022/04/10 06:23:36;;;;;;;3.08;2.40;;;;;;;1.30;80.58;101961.81;5035646;28;20042;-83
2022/04/10 06:26:01;;;;;;;2.75;2.30;;;;;;;1.36;81.28;101968.06;5035660;28;20036;-82
2022/04/10 06:28:30;;;;;;;2.88;2.30;;;;;;;1.46;81.90;101968.47;5035989;28;20432;-83
2022/04/10 06:30:56;;;;;;;2.97;2.42;;;;;;;1.56;82.20;101965.47;5051166;28;20029;-85
2022/04/10 06:33:24;;;;;;;3.85;2.63;;;;;;;1.62;81.46;101975.06;5196666;22;20010;-85
2022/04/10 06:35:49;;;;;;;2.70;2.22;;;;;;;1.70;82.47;101979.66;5055471;28;20083;-84
2022/04/10 06:38:14;;;;;;;4.65;2.70;;;;;;;1.80;82.11;101980.03;5056124;28;20025;-85
2022/04/10 06:40:39;;;;;;;3.58;2.50;;;;;;;1.87;81.58;101982.00;5054884;28;20435;-81
2022/04/10 06:43:06;;;;;;;4.03;2.55;;;;;;;1.94;81.76;101981.44;5055988;28;20103;-81
2022/04/10 06:45:31;;;;;;;3.90;2.42;;;;;;;2.05;81.35;101986.09;5054070;28;20060;-80
2022/04/10 06:47:56;;;;;;;3.90;2.50;;;;;;;2.15;82.80;101983.94;5037056;28;20507;-80
2022/04/10 06:50:22;;;;;;;5.95;2.78;;;;;;;2.28;81.38;101985.25;5035755;28;20041;-80
2022/04/10 06:52:47;;;;;;;2.92;2.42;;;;;;;2.41;81.82;101988.28;5035178;28;20466;-80
2022/04/10 06:55:13;;;;;;;3.22;2.33;;;;;;;2.52;81.66;101992.13;5035872;28;20066;-81
2022/04/10 06:57:38;;;;;;;3.13;2.30;;;;;;;2.67;82.08;101990.94;5035470;28;20492;-81
2022/04/10 07:00:04;;;;;;;2.40;2.13;;;;;;;2.78;81.70;101995.59;5034936;28;20028;-80
2022/04/10 07:02:29;;;;;;;2.65;2.35;;;;;;;2.89;81.89;101985.75;5035411;28;20455;-80
2022/04/10 07:04:54;;;;;;;3.67;2.70;;;;;;;3.31;82.45;101988.81;5035656;28;20435;-80
2022/04/10 07:07:19;;;;;;;5.50;2.53;;;;;;;5.33;82.09;101986.06;5034277;28;20021;-80
2022/04/10 07:09:44;;;;;;;4.63;2.63;;;;;;;8.07;73.25;101993.03;5036288;28;20164;-81
2022/04/10 07:12:10;;;;;;;5.45;2.80;;;;;;;10.08;69.52;101991.44;5035356;28;20473;-81
2022/04/10 07:14:35;;;;;;;3.35;2.30;;;;;;;11.40;69.85;101997.91;5043531;28;20111;-82
2022/04/10 07:17:00;;;;;;;3.78;2.58;;;;;;;12.44;62.19;102000.28;5055126;28;20033;-82
2022/04/10 07:19:26;;;;;;;2.58;2.20;;;;;;;12.85;62.37;101995.72;5055361;28;20017;-85
2022/04/10 07:24:34;;;;;;;3.25;2.00;;;;;;;12.00;59.77;101998.69;5055003;28;20044;-82
2022/04/10 07:27:03;;;;;;;4.07;2.23;;;;;;;10.93;57.38;102003.91;5054791;28;20416;-85
2022/04/10 07:29:31;;;;;;;5.78;2.80;;;;;;;9.80;61.64;102000.81;5052665;28;20026;-84
2022/04/10 07:31:56;;;;;;;3.75;2.45;;;;;;;8.91;63.80;102006.97;5054855;28;20070;-85
2022/04/10 07:34:21;;;;;;;3.50;2.27;;;;;;;8.20;64.15;102012.16;5054579;28;20061;-82
2022/04/10 07:36:47;;;;;;;4.07;2.50;;;;;;;7.62;64.91;102014.75;5054235;28;20036;-82
2022/04/10 07:39:12;;;;;;;5.40;2.60;;;;;;;7.14;65.68;102022.56;5054671;28;20032;-82
2022/04/10 07:41:40;;;;;;;2.87;2.47;;;;;;;6.82;66.77;102024.53;5052452;28;20033;-82
2022/04/10 07:44:05;;;;;;;3.95;2.58;;;;;;;6.59;68.31;102024.97;5054575;28;20496;-84
2022/04/10 07:49:18;;;;;;;6.68;2.60;;;;;;;6.33;68.84;102031.31;5061214;22;20422;-80
2022/04/10 07:51:43;;;;;;;3.85;2.78;;;;;;;6.27;68.93;102030.31;5054192;28;20037;-81
2022/04/10 07:54:08;;;;;;;3.00;2.20;;;;;;;6.23;69.72;102031.97;5054570;28;20087;-83
2022/04/10 07:56:34;;;;;;;4.28;2.30;;;;;;;6.25;69.12;102040.59;5053462;28;20025;-82
2022/04/10 07:58:59;;;;;;;4.55;2.67;;;;;;;6.28;69.80;102039.78;5054432;28;20087;-83
2022/04/10 08:01:24;;;;;;;5.90;2.53;;;;;;;6.34;68.82;102045.97;5054252;28;20029;-83
2022/04/10 08:03:51;;;;;;;4.15;2.40;;;;;;;6.38;68.79;102043.47;5053674;28;20052;-82
2022/04/10 08:06:20;;;;;;;7.43;2.70;;;;;;;6.45;67.85;102051.38;5054203;28;20028;-82
2022/04/10 08:08:46;;;;;;;4.75;2.60;;;;;;;6.51;67.70;102053.19;5049943;28;20033;-82
2022/04/10 08:11:11;;;;;;;5.40;2.42;;;;;;;6.60;68.62;102052.50;5033876;28;20061;-82
2022/04/10 08:13:37;;;;;;;4.80;2.40;;;;;;;6.71;68.51;102050.16;5034367;28;20103;-82
2022/04/10 08:16:02;;;;;;;7.65;2.97;;;;;;;6.82;67.10;102055.50;5034366;28;20014;-81
2022/04/10 08:18:27;;;;;;;7.80;3.07;;;;;;;6.92;66.29;102058.31;5033305;28;20393;-82
2022/04/10 08:20:53;;;;;;;4.70;2.20;;;;;;;7.07;67.04;102056.88;5033129;28;20034;-81
2022/04/10 08:23:18;;;;;;;3.00;1.80;;;;;;;7.13;66.66;102059.56;5033688;28;20018;-81
2022/04/10 08:25:43;;;;;;;7.45;2.53;;;;;;;7.12;64.80;102070.72;5033538;28;20512;-81
2022/04/10 08:28:08;;;;;;;7.67;2.73;;;;;;;6.94;62.07;102073.81;5034209;28;20386;-82
2022/04/10 08:30:34;;;;;;;9.07;2.93;;;;;;;6.87;64.35;102074.56;5033753;28;20041;-82
2022/04/10 08:33:00;;;;;;;8.07;3.00;;;;;;;6.92;64.28;102073.81;5032844;28;20030;-81
2022/04/10 08:35:25;;;;;;;5.70;2.70;;;;;;;7.06;64.22;102075.78;5047847;28;20104;-81
2022/04/10 08:37:51;;;;;;;8.17;3.10;;;;;;;7.02;64.56;102086.88;5053667;28;20102;-83
2022/04/10 08:40:16;;;;;;;7.63;2.80;;;;;;;6.85;65.13;102086.53;5060376;22;20186;-82
2022/04/10 08:42:42;;;;;;;9.63;3.10;;;;;;;6.66;67.03;102083.59;5053377;28;20024;-81
2022/04/10 08:45:09;;;;;;;6.28;3.08;;;;;;;6.52;67.48;102088.47;5052672;28;20137;-80
2022/04/10 08:47:43;;;;;;;7.05;2.75;;;;;;;6.57;67.10;102086.84;5053233;28;20025;-80
2022/04/10 08:50:10;;;;;;;6.70;3.13;;;;;;;6.61;67.22;102080.03;5051986;28;20066;-80
2022/04/10 08:52:37;;;;;;;;;;;;;;;6.78;67.18;102090.72;5038056;28;20040;-80
2022/04/10 08:55:02;;;;;;;;;;;;;;;6.93;66.78;102091.03;5053828;28;20057;-81
2022/04/10 08:57:30;;;;;;;8.90;3.30;;;;;;;7.02;66.41;102090.34;5053304;28;19974;-80
2022/04/10 08:59:57;;;;;;;8.70;3.10;;;;;;;7.16;64.24;102098.34;5052709;28;20025;-81
2022/04/10 09:02:47;;;;;;;7.80;2.97;;;;;;;7.26;64.10;102089.94;5144907;22;20520;-81
2022/04/10 09:05:24;;;;;;;6.53;2.83;;;;;;;7.32;63.06;102096.94;5053301;28;20480;-81
2022/04/10 09:08:06;;;;;;;11.18;3.00;;;;;;;7.32;64.00;102089.19;5048044;28;20025;-81
2022/04/10 09:11:01;;;;;;;5.45;2.88;;;;;;;7.44;63.51;102088.50;5052717;28;20025;-80
2022/04/10 09:16:00;;;;;;;6.55;2.40;;;;;;;7.80;62.23;102091.72;5728107;22;20054;-81
2022/04/10 09:18:25;;;;;;;5.88;2.45;;;;;;;7.99;61.39;102088.56;5033801;28;20025;-81
2022/04/10 09:21:06;;;;;;;2.73;2.03;;;;;;;8.17;59.68;102089.69;5032633;28;20032;-81
2022/04/10 09:23:31;;;;;;;5.07;2.10;;;;;;;8.19;58.13;102088.88;5044198;28;20043;-81
2022/04/10 09:25:58;;;;;;;6.73;2.30;;;;;;;8.28;58.47;102095.03;5053316;28;20092;-81
2022/04/10 09:28:43;;;;;;;3.53;2.00;;;;;;;8.50;59.34;102101.38;5051877;28;20036;-80
2022/04/10 09:31:32;;;;;;;2.90;1.65;;;;;;;8.76;59.69;102093.97;5035308;28;20081;-80
2022/04/10 09:34:00;;;;;;;5.60;2.00;;;;;;;8.99;57.70;102088.22;5032683;28;20025;-80
2022/04/10 09:36:40;;;;;;;4.07;2.10;;;;;;;9.14;54.85;102099.56;5032138;28;20014;-80
2022/04/10 09:39:11;;;;;;;6.38;2.42;;;;;;;8.91;53.10;102100.19;5033024;28;20039;-80
2022/04/10 09:41:39;;;;;;;6.25;2.35;;;;;;;8.93;55.67;102101.97;5031875;28;20057;-82
2022/04/10 09:44:13;;;;;;;7.00;2.45;;;;;;;8.79;53.52;102096.59;5032923;28;20114;-82
2022/04/10 09:46:40;;;;;;;4.88;2.10;;;;;;;8.88;55.44;102092.41;5042681;28;20029;-82
2022/04/10 09:49:12;;;;;;;6.20;2.30;;;;;;;9.01;55.21;102086.47;5051962;28;20021;-81
2022/04/10 09:51:56;;;;;;;5.53;2.03;;;;;;;9.06;54.63;102095.19;5033798;28;20362;-83
2022/04/10 09:54:21;;;;;;;2.55;1.80;;;;;;;9.27;55.62;102094.56;5032239;28;20136;-82
2022/04/10 09:59:12;;;;;;;3.25;1.50;;;;;;;9.84;54.85;102088.13;5743355;22;20060;-83
2022/04/10 10:01:37;;;;;;;3.17;1.60;;;;;;;10.04;53.40;102090.88;5032156;28;20066;-85
2022/04/10 10:04:03;;;;;;;1.87;1.50;;;;;;;10.23;54.68;102091.00;5031984;28;20108;-84
2022/04/10 10:06:29;;;;;;;4.53;1.90;;;;;;;10.35;52.75;102076.38;5033422;28;20041;-85
2022/04/10 10:08:54;;;;;;;4.77;2.20;;;;;;;10.48;49.69;102084.22;5032601;28;20040;-85
2022/04/10 10:11:20;;;;;;;4.83;1.87;;;;;;;10.41;54.00;102082.47;5031115;28;20033;-84
2022/04/10 10:13:46;;;;;;;2.00;1.80;;;;;;;10.27;50.45;102091.00;5033381;28;20029;-84
2022/04/10 10:16:12;;;;;;;5.43;2.10;;;;;;;10.00;51.05;102084.81;5032349;28;20089;-86
2022/04/10 10:18:39;;;;;;;4.93;1.97;;;;;;;9.69;49.93;102079.38;5031634;28;20025;-85
2022/04/10 10:21:09;;;;;;;4.72;2.10;;;;;;;9.68;49.18;102071.59;5032343;28;20025;-86
2022/04/10 10:23:36;;;;;;;4.45;1.75;;;;;;;9.77;52.61;102081.16;5031419;28;20037;-85
2022/04/10 10:26:23;;;;;;;3.63;1.83;;;;;;;9.94;51.73;102071.78;5032364;28;20036;-85
2022/04/10 10:29:20;;;;;;;4.28;2.05;;;;;;;9.96;48.69;102074.41;5040023;28;20041;-85
2022/04/10 10:31:57;;;;;;;3.67;1.92;;;;;;;9.85;50.16;102076.91;5031263;28;20072;-88
2022/04/10 10:34:25;;;;;;;4.32;1.67;;;;;;;9.96;48.29;102080.44;5049802;28;20111;-83
2022/04/10 10:36:53;;;;;;;1.35;1.10;;;;;;;10.18;51.08;102073.69;5034122;28;20030;-83
2022/04/10 10:39:20;;;;;;;2.95;1.65;;;;;;;10.32;51.96;102068.56;5031340;28;20420;-84
2022/04/10 10:41:51;;;;;;;3.67;2.00;;;;;;;10.27;49.21;102072.00;5054632;22;20052;-83
2022/04/10 10:44:49;;;;;;;3.88;1.60;;;;;;;10.12;51.90;102075.38;5054826;28;20040;-83
2022/04/10 10:47:25;;;;;;;3.30;1.92;;;;;;;9.67;48.75;102083.69;5056082;28;20021;-84
2022/04/10 10:49:53;;;;;;;6.88;2.15;;;;;;;9.48;50.78;102081.78;5055791;28;20029;-85
2022/04/10 10:52:21;;;;;;;3.10;1.80;;;;;;;9.63;52.01;102079.31;5054013;28;20362;-84
2022/04/10 10:54:52;;;;;;;4.53;1.90;;;;;;;9.94;51.39;102082.16;5035695;28;20120;-85
2022/04/10 10:57:39;;;;;;;4.30;2.20;;;;;;;10.21;48.84;102080.63;5035407;28;20033;-85
2022/04/10 11:00:06;;;;;;;6.13;2.22;;;;;;;10.23;46.25;102078.03;5035014;28;20124;-84
2022/04/10 11:02:32;;;;;;;;;;;;;;;10.21;45.33;102078.03;5036135;28;20021;-85
2022/04/10 11:04:57;;;;;;;2.97;1.85;;;;;;;10.28;47.19;102063.34;5035462;28;20373;-84
2022/04/10 11:07:25;;;;;;;3.60;1.80;;;;;;;10.61;47.33;102073.06;5034615;28;20033;-84
2022/04/10 11:09:53;;;;;;;4.18;1.90;;;;;;;10.89;48.70;102074.88;5035484;28;20026;-85
2022/04/10 11:12:23;;;;;;;4.35;1.85;;;;;;;11.17;44.62;102070.63;5034980;28;20049;-84
2022/04/10 11:14:52;;;;;;;1.80;1.70;;;;;;;11.46;48.54;102074.13;5034784;28;20037;-88
2022/04/10 11:17:26;;;;;;;2.88;1.70;;;;;;;11.78;44.00;102071.53;5035346;28;20108;-85
2022/04/10 11:19:58;;;;;;;3.70;2.00;;;;;;;11.95;42.98;102076.72;5034516;28;20359;-82
2022/04/10 11:22:29;;;;;;;4.57;2.25;;;;;;;11.90;41.64;102068.06;5035377;28;20055;-83
2022/04/10 11:24:58;;;;;;;5.07;2.10;;;;;;;11.92;44.57;102070.66;5052063;28;20048;-85
2022/04/10 11:27:43;;;;;;;2.55;1.67;;;;;;;11.82;43.42;102070.66;5054132;28;20048;-85
2022/04/10 11:30:22;;;;;;;2.40;1.80;;;;;;;11.76;42.37;102065.47;5055244;28;20027;-85
2022/04/10 11:32:54;;;;;;;4.72;2.08;;;;;;;11.60;41.28;102062.00;5055087;28;20033;-85
2022/04/10 11:35:31;;;;;;;4.38;1.92;;;;;;;11.59;44.54;102061.16;5052479;28;20025;-85
2022/04/10 11:37:59;;;;;;;2.83;1.58;;;;;;;11.85;41.49;102057.66;5054501;28;20530;-84
2022/04/10 11:40:27;;;;;;;2.72;1.50;;;;;;;12.10;44.75;102055.06;5054316;28;20049;-84
2022/04/10 11:42:54;;;;;;;1.20;1.10;;;;;;;12.42;45.30;102048.03;5053328;28;20040;-85
2022/04/10 11:45:21;;;;;;;2.83;1.20;;;;;;;12.72;43.75;102053.97;5054379;28;20044;-85
2022/04/10 11:47:48;;;;;;;4.88;1.48;;;;;;;12.91;40.88;102046.94;5054589;28;20104;-85